sensor_id;sensor_type;location;lat;lon;timestamp;pressure;altitude;pressure_sealevel;temperature;humidity
73085;BME280;62974;49.460;10.892;2022-10-16T00:02:15;97696.72;;;14.49;100.00
73085;BME280;62974;49.460;10.892;2022-10-16T00:04:43;97702.34;;;14.47;100.00
73085;BME280;62974;49.460;10.892;2022-10-16T00:07:10;97715.09;;;14.40;100.00
73085;BME280;62974;49.460;10.892;2022-10-16T00:09:37;97718.41;;;14.42;100.00
73085;BME280;62974;49.460;10.892;2022-10-16T00:12:05;97712.09;;;14.48;100.00
73085;BME280;62974;49.460;10.892;2022-10-16T00:14:32;97722.59;;;14.56;100.00
73085;BME280;62974;49.460;10.892;2022-10-16T00:17:00;97714.72;;;14.55;100.00
73085;BME280;62974;49.460;10.892;2022-10-16T00:19:28;97719.66;;;14.58;100.00
73085;BME280;62974;49.460;10.892;2022-10-16T00:21:56;97718.69;;;14.52;100.00
73085;BME280;62974;49.460;10.892;2022-10-16T00:24:23;97723.28;;;14.52;100.00
73085;BME280;62974;49.460;10.892;2022-10-16T00:26:50;97716.81;;;14.53;100.00
73085;BME280;62974;49.460;10.892;2022-10-16T00:29:18;97720.06;;;14.43;100.00
73085;BME280;62974;49.460;10.892;2022-10-16T00:31:45;97722.59;;;14.38;100.00
73085;BME280;62974;49.460;10.892;2022-10-16T00:34:12;97726.59;;;14.36;100.00
73085;BME280;62974;49.460;10.892;2022-10-16T00:36:41;97730.34;;;14.35;100.00
73085;BME280;62974;49.460;10.892;2022-10-16T00:39:08;97727.78;;;14.40;100.00
73085;BME280;62974;49.460;10.892;2022-10-16T00:41:36;97717.56;;;14.42;100.00
73085;BME280;62974;49.460;10.892;2022-10-16T00:44:40;97719.91;;;14.38;100.00
73085;BME280;62974;49.460;10.892;2022-10-16T00:46:50;97718.09;;;14.32;100.00
73085;BME280;62974;49.460;10.892;2022-10-16T00:49:18;97724.25;;;14.39;100.00
73085;BME280;62974;49.460;10.892;2022-10-16T00:51:48;97717.56;;;14.42;100.00
73085;BME280;62974;49.460;10.892;2022-10-16T00:54:17;97721.94;;;14.43;100.00
73085;BME280;62974;49.460;10.892;2022-10-16T00:56:46;97718.25;;;14.37;100.00
73085;BME280;62974;49.460;10.892;2022-10-16T00:59:15;97727.53;;;14.41;100.00
73085;BME280;62974;49.460;10.892;2022-10-16T01:01:43;97728.38;;;14.42;100.00
73085;BME280;62974;49.460;10.892;2022-10-16T01:04:10;97723.78;;;14.42;100.00
73085;BME280;62974;49.460;10.892;2022-10-16T01:06:39;97731.22;;;14.47;100.00
73085;BME280;62974;49.460;10.892;2022-10-16T01:09:13;97730.25;;;14.41;100.00
73085;BME280;62974;49.460;10.892;2022-10-16T01:11:44;97736.47;;;14.42;100.00
73085;BME280;62974;49.460;10.892;2022-10-16T01:14:19;97730.41;;;14.46;100.00
73085;BME280;62974;49.460;10.892;2022-10-16T01:16:49;97729.34;;;14.47;100.00
73085;BME280;62974;49.460;10.892;2022-10-16T01:19:20;97731.84;;;14.49;100.00
73085;BME280;62974;49.460;10.892;2022-10-16T01:21:52;97730.34;;;14.53;100.00
73085;BME280;62974;49.460;10.892;2022-10-16T01:24:25;97729.34;;;14.47;100.00
73085;BME280;62974;49.460;10.892;2022-10-16T01:27:02;97735.22;;;14.44;100.00
73085;BME280;62974;49.460;10.892;2022-10-16T01:29:32;97737.97;;;14.38;100.00
73085;BME280;62974;49.460;10.892;2022-10-16T01:32:05;97731.91;;;14.42;100.00
73085;BME280;62974;49.460;10.892;2022-10-16T01:34:37;97733.09;;;14.46;100.00
73085;BME280;62974;49.460;10.892;2022-10-16T01:37:07;97747.44;;;14.47;100.00
73085;BME280;62974;49.460;10.892;2022-10-16T01:39:37;97740.63;;;14.44;100.00
73085;BME280;62974;49.460;10.892;2022-10-16T01:42:09;97737.97;;;14.38;100.00
73085;BME280;62974;49.460;10.892;2022-10-16T01:44:38;97739.69;;;14.32;100.00
73085;BME280;62974;49.460;10.892;2022-10-16T01:47:07;97747.56;;;14.34;100.00
73085;BME280;62974;49.460;10.892;2022-10-16T01:49:36;97753.41;;;14.31;100.00
73085;BME280;62974;49.460;10.892;2022-10-16T01:52:05;97763.19;;;14.32;100.00
73085;BME280;62974;49.460;10.892;2022-10-16T01:54:33;97755.06;;;14.32;100.00
73085;BME280;62974;49.460;10.892;2022-10-16T01:57:02;97760.66;;;14.37;100.00
73085;BME280;62974;49.460;10.892;2022-10-16T01:59:35;97760.78;;;14.42;100.00
73085;BME280;62974;49.460;10.892;2022-10-16T02:02:05;97763.38;;;14.37;100.00
73085;BME280;62974;49.460;10.892;2022-10-16T02:04:34;97765.81;;;14.38;100.00
73085;BME280;62974;49.460;10.892;2022-10-16T02:07:03;97765.38;;;14.41;100.00
73085;BME280;62974;49.460;10.892;2022-10-16T02:09:32;97762.25;;;14.44;100.00
73085;BME280;62974;49.460;10.892;2022-10-16T02:12:00;97759.38;;;14.39;100.00
73085;BME280;62974;49.460;10.892;2022-10-16T02:14:30;97766.44;;;14.40;100.00
73085;BME280;62974;49.460;10.892;2022-10-16T02:16:59;97762.91;;;14.40;100.00
73085;BME280;62974;49.460;10.892;2022-10-16T02:19:26;97766.19;;;14.42;100.00
73085;BME280;62974;49.460;10.892;2022-10-16T02:21:54;97759.16;;;14.41;100.00
73085;BME280;62974;49.460;10.892;2022-10-16T02:24:24;97762.66;;;14.41;100.00
73085;BME280;62974;49.460;10.892;2022-10-16T02:26:57;97755.63;;;14.40;100.00
73085;BME280;62974;49.460;10.892;2022-10-16T02:29:26;97754.97;;;14.45;100.00
73085;BME280;62974;49.460;10.892;2022-10-16T02:31:55;97753.69;;;14.47;100.00
73085;BME280;62974;49.460;10.892;2022-10-16T02:34:27;97749.56;;;14.45;100.00
73085;BME280;62974;49.460;10.892;2022-10-16T02:36:55;97758.72;;;14.44;100.00
73085;BME280;62974;49.460;10.892;2022-10-16T02:39:24;97759.16;;;14.41;100.00
73085;BME280;62974;49.460;10.892;2022-10-16T02:41:52;97759.22;;;14.52;100.00
73085;BME280;62974;49.460;10.892;2022-10-16T02:44:19;97757.94;;;14.55;100.00
73085;BME280;62974;49.460;10.892;2022-10-16T02:46:47;97749.78;;;14.43;100.00
73085;BME280;62974;49.460;10.892;2022-10-16T02:49:14;97745.72;;;14.52;100.00
73085;BME280;62974;49.460;10.892;2022-10-16T02:51:43;97752.97;;;14.34;100.00
73085;BME280;62974;49.460;10.892;2022-10-16T02:54:10;97752.63;;;14.48;100.00
73085;BME280;62974;49.460;10.892;2022-10-16T02:56:39;97765.50;;;14.28;100.00
73085;BME280;62974;49.460;10.892;2022-10-16T02:59:06;97762.28;;;14.38;100.00
73085;BME280;62974;49.460;10.892;2022-10-16T03:01:33;97763.50;;;14.42;100.00
73085;BME280;62974;49.460;10.892;2022-10-16T03:04:02;97760.22;;;14.40;100.00
73085;BME280;62974;49.460;10.892;2022-10-16T03:06:29;97767.03;;;14.42;100.00
73085;BME280;62974;49.460;10.892;2022-10-16T03:08:58;97771.53;;;14.48;100.00
73085;BME280;62974;49.460;10.892;2022-10-16T03:11:25;97775.81;;;14.38;100.00
73085;BME280;62974;49.460;10.892;2022-10-16T03:13:54;97771.63;;;14.60;100.00
73085;BME280;62974;49.460;10.892;2022-10-16T03:16:21;97771.97;;;14.45;100.00
73085;BME280;62974;49.460;10.892;2022-10-16T03:18:48;97768.91;;;14.42;100.00
73085;BME280;62974;49.460;10.892;2022-10-16T03:21:16;97769.22;;;14.52;100.00
73085;BME280;62974;49.460;10.892;2022-10-16T03:23:43;97767.56;;;14.51;100.00
73085;BME280;62974;49.460;10.892;2022-10-16T03:26:12;97765.00;;;14.38;100.00
73085;BME280;62974;49.460;10.892;2022-10-16T03:28:40;97765.16;;;14.43;100.00
73085;BME280;62974;49.460;10.892;2022-10-16T03:31:07;97774.56;;;14.40;100.00
73085;BME280;62974;49.460;10.892;2022-10-16T03:33:35;97780.16;;;14.39;100.00
73085;BME280;62974;49.460;10.892;2022-10-16T03:36:02;97777.53;;;14.32;100.00
73085;BME280;62974;49.460;10.892;2022-10-16T03:38:30;97777.72;;;14.31;100.00
73085;BME280;62974;49.460;10.892;2022-10-16T03:40:57;97771.56;;;14.24;100.00
73085;BME280;62974;49.460;10.892;2022-10-16T03:43:27;97770.78;;;14.41;100.00
73085;BME280;62974;49.460;10.892;2022-10-16T03:45:54;97776.19;;;14.41;100.00
73085;BME280;62974;49.460;10.892;2022-10-16T03:48:22;97774.84;;;14.50;100.00
73085;BME280;62974;49.460;10.892;2022-10-16T03:50:49;97775.28;;;14.47;100.00
73085;BME280;62974;49.460;10.892;2022-10-16T03:53:17;97783.03;;;14.44;100.00
73085;BME280;62974;49.460;10.892;2022-10-16T03:55:45;97771.66;;;14.53;100.00
73085;BME280;62974;49.460;10.892;2022-10-16T03:58:12;97785.44;;;14.52;100.00
73085;BME280;62974;49.460;10.892;2022-10-16T04:00:41;97785.13;;;14.42;100.00
73085;BME280;62974;49.460;10.892;2022-10-16T04:03:09;97787.91;;;14.35;100.00
73085;BME280;62974;49.460;10.892;2022-10-16T04:05:36;97792.38;;;14.41;100.00
73085;BME280;62974;49.460;10.892;2022-10-16T04:08:04;97796.28;;;14.45;100.00
73085;BME280;62974;49.460;10.892;2022-10-16T04:10:31;97795.97;;;14.17;100.00
73085;BME280;62974;49.460;10.892;2022-10-16T04:13:00;97799.25;;;14.19;100.00
73085;BME280;62974;49.460;10.892;2022-10-16T04:15:27;97802.72;;;14.26;100.00
73085;BME280;62974;49.460;10.892;2022-10-16T04:17:56;97797.84;;;14.17;100.00
73085;BME280;62974;49.460;10.892;2022-10-16T04:20:23;97797.88;;;14.10;100.00
73085;BME280;62974;49.460;10.892;2022-10-16T04:22:51;97798.25;;;14.13;100.00
73085;BME280;62974;49.460;10.892;2022-10-16T04:25:18;97796.97;;;13.98;100.00
73085;BME280;62974;49.460;10.892;2022-10-16T04:27:45;97804.06;;;14.17;100.00
73085;BME280;62974;49.460;10.892;2022-10-16T04:30:13;97793.84;;;14.01;100.00
73085;BME280;62974;49.460;10.892;2022-10-16T04:32:40;97798.16;;;14.02;100.00
73085;BME280;62974;49.460;10.892;2022-10-16T04:35:09;97796.72;;;14.24;100.00
73085;BME280;62974;49.460;10.892;2022-10-16T04:37:36;97797.00;;;14.16;100.00
73085;BME280;62974;49.460;10.892;2022-10-16T04:40:04;97800.47;;;14.23;100.00
73085;BME280;62974;49.460;10.892;2022-10-16T04:42:31;97796.00;;;13.92;100.00
73085;BME280;62974;49.460;10.892;2022-10-16T04:44:59;97798.31;;;13.89;100.00
73085;BME280;62974;49.460;10.892;2022-10-16T04:47:26;97791.22;;;14.13;100.00
73085;BME280;62974;49.460;10.892;2022-10-16T04:49:54;97794.97;;;14.11;100.00
73085;BME280;62974;49.460;10.892;2022-10-16T04:52:25;97805.88;;;14.23;100.00
73085;BME280;62974;49.460;10.892;2022-10-16T04:54:52;97807.44;;;13.88;100.00
73085;BME280;62974;49.460;10.892;2022-10-16T04:57:20;97807.06;;;14.09;100.00
73085;BME280;62974;49.460;10.892;2022-10-16T04:59:47;97805.13;;;14.16;100.00
73085;BME280;62974;49.460;10.892;2022-10-16T05:02:15;97798.16;;;14.02;100.00
73085;BME280;62974;49.460;10.892;2022-10-16T05:04:42;97796.00;;;14.10;100.00
73085;BME280;62974;49.460;10.892;2022-10-16T05:07:09;97807.56;;;14.18;100.00
73085;BME280;62974;49.460;10.892;2022-10-16T05:09:38;97809.47;;;14.17;100.00
73085;BME280;62974;49.460;10.892;2022-10-16T05:12:06;97807.19;;;14.14;100.00
73085;BME280;62974;49.460;10.892;2022-10-16T05:14:33;97811.00;;;14.06;100.00
73085;BME280;62974;49.460;10.892;2022-10-16T05:17:00;97812.66;;;14.07;100.00
73085;BME280;62974;49.460;10.892;2022-10-16T05:19:28;97817.03;;;14.08;100.00
73085;BME280;62974;49.460;10.892;2022-10-16T05:21:55;97819.72;;;14.08;100.00
73085;BME280;62974;49.460;10.892;2022-10-16T05:24:22;97820.41;;;14.22;100.00
73085;BME280;62974;49.460;10.892;2022-10-16T05:26:51;97820.56;;;14.27;100.00
73085;BME280;62974;49.460;10.892;2022-10-16T05:29:18;97824.41;;;14.20;100.00
73085;BME280;62974;49.460;10.892;2022-10-16T05:31:46;97835.56;;;14.05;100.00
73085;BME280;62974;49.460;10.892;2022-10-16T05:34:13;97846.56;;;14.03;100.00
73085;BME280;62974;49.460;10.892;2022-10-16T05:36:41;97846.56;;;14.03;100.00
73085;BME280;62974;49.460;10.892;2022-10-16T05:39:08;97846.34;;;14.05;100.00
73085;BME280;62974;49.460;10.892;2022-10-16T05:41:35;97846.94;;;14.07;100.00
73085;BME280;62974;49.460;10.892;2022-10-16T05:44:05;97856.53;;;14.03;100.00
73085;BME280;62974;49.460;10.892;2022-10-16T05:46:32;97859.91;;;13.98;100.00
73085;BME280;62974;49.460;10.892;2022-10-16T05:49:00;97857.03;;;13.93;100.00
73085;BME280;62974;49.460;10.892;2022-10-16T05:51:27;97861.19;;;13.96;100.00
73085;BME280;62974;49.460;10.892;2022-10-16T05:53:55;97860.13;;;13.97;100.00
73085;BME280;62974;49.460;10.892;2022-10-16T05:56:22;97858.19;;;14.04;100.00
73085;BME280;62974;49.460;10.892;2022-10-16T05:58:49;97854.72;;;13.97;100.00
73085;BME280;62974;49.460;10.892;2022-10-16T06:01:18;97859.91;;;13.98;100.00
73085;BME280;62974;49.460;10.892;2022-10-16T06:03:46;97856.47;;;14.09;100.00
73085;BME280;62974;49.460;10.892;2022-10-16T06:06:15;97861.59;;;14.18;100.00
73085;BME280;62974;49.460;10.892;2022-10-16T06:08:42;97859.50;;;14.20;100.00
73085;BME280;62974;49.460;10.892;2022-10-16T06:11:12;97864.69;;;14.21;100.00
73085;BME280;62974;49.460;10.892;2022-10-16T06:13:40;97868.66;;;14.19;100.00
73085;BME280;62974;49.460;10.892;2022-10-16T06:16:09;97870.25;;;14.26;100.00
73085;BME280;62974;49.460;10.892;2022-10-16T06:18:38;97866.50;;;14.27;100.00
73085;BME280;62974;49.460;10.892;2022-10-16T06:21:09;97869.22;;;14.02;100.00
73085;BME280;62974;49.460;10.892;2022-10-16T06:23:37;97863.97;;;14.07;100.00
73085;BME280;62974;49.460;10.892;2022-10-16T06:26:05;97864.53;;;13.91;100.00
73085;BME280;62974;49.460;10.892;2022-10-16T06:28:32;97876.28;;;14.03;100.00
73085;BME280;62974;49.460;10.892;2022-10-16T06:31:00;97877.13;;;14.22;100.00
73085;BME280;62974;49.460;10.892;2022-10-16T06:33:33;97880.56;;;13.86;100.00
73085;BME280;62974;49.460;10.892;2022-10-16T06:36:02;97878.34;;;13.77;100.00
73085;BME280;62974;49.460;10.892;2022-10-16T06:38:30;97872.53;;;14.04;100.00
73085;BME280;62974;49.460;10.892;2022-10-16T06:40:57;97866.13;;;14.24;100.00
73085;BME280;62974;49.460;10.892;2022-10-16T06:43:25;97872.75;;;14.03;100.00
73085;BME280;62974;49.460;10.892;2022-10-16T06:45:52;97876.81;;;14.12;100.00
73085;BME280;62974;49.460;10.892;2022-10-16T06:48:20;97879.06;;;14.15;100.00
73085;BME280;62974;49.460;10.892;2022-10-16T06:50:57;97888.69;;;14.36;100.00
73085;BME280;62974;49.460;10.892;2022-10-16T06:53:26;97901.75;;;14.39;100.00
73085;BME280;62974;49.460;10.892;2022-10-16T06:55:54;97907.22;;;14.26;100.00
73085;BME280;62974;49.460;10.892;2022-10-16T06:58:22;97909.69;;;14.09;100.00
73085;BME280;62974;49.460;10.892;2022-10-16T07:00:54;97907.94;;;13.90;100.00
73085;BME280;62974;49.460;10.892;2022-10-16T07:03:22;97916.59;;;13.98;100.00
73085;BME280;62974;49.460;10.892;2022-10-16T07:05:49;97936.25;;;14.05;100.00
73085;BME280;62974;49.460;10.892;2022-10-16T07:08:16;97939.78;;;14.06;100.00
73085;BME280;62974;49.460;10.892;2022-10-16T07:10:45;97933.56;;;14.05;100.00
73085;BME280;62974;49.460;10.892;2022-10-16T07:13:12;97927.81;;;14.27;100.00
73085;BME280;62974;49.460;10.892;2022-10-16T07:15:40;97922.97;;;14.35;100.00
73085;BME280;62974;49.460;10.892;2022-10-16T07:18:08;97934.41;;;14.31;100.00
73085;BME280;62974;49.460;10.892;2022-10-16T07:20:36;97948.75;;;14.31;100.00
73085;BME280;62974;49.460;10.892;2022-10-16T07:23:03;97955.19;;;14.37;100.00
73085;BME280;62974;49.460;10.892;2022-10-16T07:25:30;97957.28;;;14.35;100.00
73085;BME280;62974;49.460;10.892;2022-10-16T07:27:59;97965.09;;;14.43;100.00
73085;BME280;62974;49.460;10.892;2022-10-16T07:30:26;97960.91;;;14.47;100.00
73085;BME280;62974;49.460;10.892;2022-10-16T07:32:54;97968.38;;;14.51;100.00
73085;BME280;62974;49.460;10.892;2022-10-16T07:35:21;97971.44;;;14.55;100.00
73085;BME280;62974;49.460;10.892;2022-10-16T07:37:48;97959.09;;;14.41;100.00
73085;BME280;62974;49.460;10.892;2022-10-16T07:40:16;97953.31;;;14.31;100.00
73085;BME280;62974;49.460;10.892;2022-10-16T07:42:43;97955.56;;;14.40;100.00
73085;BME280;62974;49.460;10.892;2022-10-16T07:45:12;97961.75;;;14.47;100.00
73085;BME280;62974;49.460;10.892;2022-10-16T07:47:39;97956.78;;;14.44;100.00
73085;BME280;62974;49.460;10.892;2022-10-16T07:50:07;97957.38;;;14.46;100.00
73085;BME280;62974;49.460;10.892;2022-10-16T07:52:34;97966.69;;;14.50;100.00
73085;BME280;62974;49.460;10.892;2022-10-16T07:55:02;97972.16;;;14.44;100.00
73085;BME280;62974;49.460;10.892;2022-10-16T07:57:29;97975.16;;;14.61;100.00
73085;BME280;62974;49.460;10.892;2022-10-16T07:59:56;97969.34;;;14.57;100.00
73085;BME280;62974;49.460;10.892;2022-10-16T08:02:25;97978.72;;;14.54;100.00
73085;BME280;62974;49.460;10.892;2022-10-16T08:04:53;97984.50;;;14.58;100.00
73085;BME280;62974;49.460;10.892;2022-10-16T08:07:20;97989.53;;;14.54;100.00
73085;BME280;62974;49.460;10.892;2022-10-16T08:09:48;97989.16;;;14.51;100.00
73085;BME280;62974;49.460;10.892;2022-10-16T08:12:16;97987.28;;;14.51;100.00
73085;BME280;62974;49.460;10.892;2022-10-16T08:14:43;97984.50;;;14.58;100.00
73085;BME280;62974;49.460;10.892;2022-10-16T08:17:13;97977.41;;;14.64;100.00
73085;BME280;62974;49.460;10.892;2022-10-16T08:19:44;97982.63;;;14.58;100.00
73085;BME280;62974;49.460;10.892;2022-10-16T08:22:12;97988.22;;;14.64;100.00
73085;BME280;62974;49.460;10.892;2022-10-16T08:24:44;97985.50;;;14.64;100.00
73085;BME280;62974;49.460;10.892;2022-10-16T08:27:12;97982.06;;;14.75;100.00
73085;BME280;62974;49.460;10.892;2022-10-16T08:29:39;97989.31;;;14.81;100.00
73085;BME280;62974;49.460;10.892;2022-10-16T08:32:06;97995.22;;;14.89;100.00
73085;BME280;62974;49.460;10.892;2022-10-16T08:34:34;97991.81;;;15.00;100.00
73085;BME280;62974;49.460;10.892;2022-10-16T08:37:02;97996.78;;;15.03;100.00
73085;BME280;62974;49.460;10.892;2022-10-16T08:39:30;98000.31;;;15.04;100.00
73085;BME280;62974;49.460;10.892;2022-10-16T08:42:01;98005.94;;;15.02;100.00
73085;BME280;62974;49.460;10.892;2022-10-16T08:44:39;98005.84;;;15.09;100.00
73085;BME280;62974;49.460;10.892;2022-10-16T08:47:13;98002.56;;;15.07;100.00
73085;BME280;62974;49.460;10.892;2022-10-16T08:49:47;98008.44;;;15.04;100.00
73085;BME280;62974;49.460;10.892;2022-10-16T08:52:22;98008.63;;;15.02;100.00
73085;BME280;62974;49.460;10.892;2022-10-16T08:54:51;98003.84;;;15.23;100.00
73085;BME280;62974;49.460;10.892;2022-10-16T08:57:20;98004.22;;;15.26;100.00
73085;BME280;62974;49.460;10.892;2022-10-16T08:59:49;98006.03;;;15.32;100.00
73085;BME280;62974;49.460;10.892;2022-10-16T09:02:24;98003.16;;;15.45;100.00
73085;BME280;62974;49.460;10.892;2022-10-16T09:05:16;98004.59;;;15.48;100.00
73085;BME280;62974;49.460;10.892;2022-10-16T09:07:48;98005.53;;;15.60;100.00
73085;BME280;62974;49.460;10.892;2022-10-16T09:10:22;98014.81;;;15.46;100.00
73085;BME280;62974;49.460;10.892;2022-10-16T09:12:52;98013.19;;;15.63;100.00
73085;BME280;62974;49.460;10.892;2022-10-16T09:15:24;98011.38;;;15.57;100.00
73085;BME280;62974;49.460;10.892;2022-10-16T09:17:58;98017.63;;;15.58;100.00
73085;BME280;62974;49.460;10.892;2022-10-16T09:20:36;98018.88;;;15.37;100.00
73085;BME280;62974;49.460;10.892;2022-10-16T09:23:15;98028.72;;;15.31;100.00
73085;BME280;62974;49.460;10.892;2022-10-16T09:25:44;98028.44;;;15.39;100.00
73085;BME280;62974;49.460;10.892;2022-10-16T09:28:12;98028.66;;;15.38;100.00
73085;BME280;62974;49.460;10.892;2022-10-16T09:30:39;98036.38;;;15.34;100.00
73085;BME280;62974;49.460;10.892;2022-10-16T09:33:07;98029.69;;;15.37;100.00
73085;BME280;62974;49.460;10.892;2022-10-16T09:35:36;98039.72;;;15.36;100.00
73085;BME280;62974;49.460;10.892;2022-10-16T09:38:05;98038.81;;;15.42;100.00
73085;BME280;62974;49.460;10.892;2022-10-16T09:40:34;98027.88;;;15.49;100.00
73085;BME280;62974;49.460;10.892;2022-10-16T09:43:05;98029.13;;;15.53;100.00
73085;BME280;62974;49.460;10.892;2022-10-16T09:45:35;98034.09;;;15.56;100.00
73085;BME280;62974;49.460;10.892;2022-10-16T09:48:09;98034.91;;;15.57;100.00
73085;BME280;62974;49.460;10.892;2022-10-16T09:50:38;98029.91;;;15.60;100.00
73085;BME280;62974;49.460;10.892;2022-10-16T09:53:08;98033.41;;;15.61;100.00
73085;BME280;62974;49.460;10.892;2022-10-16T09:55:47;98038.22;;;15.59;100.00
73085;BME280;62974;49.460;10.892;2022-10-16T09:58:14;98043.25;;;15.73;100.00
73085;BME280;62974;49.460;10.892;2022-10-16T10:00:42;98040.47;;;15.80;100.00
73085;BME280;62974;49.460;10.892;2022-10-16T10:03:19;98042.31;;;15.97;100.00
73085;BME280;62974;49.460;10.892;2022-10-16T10:05:57;98038.75;;;16.15;100.00
73085;BME280;62974;49.460;10.892;2022-10-16T10:08:27;98038.03;;;16.08;100.00
73085;BME280;62974;49.460;10.892;2022-10-16T10:10:56;98041.69;;;16.14;100.00
73085;BME280;62974;49.460;10.892;2022-10-16T10:13:24;98039.50;;;16.34;100.00
73085;BME280;62974;49.460;10.892;2022-10-16T10:15:52;98048.28;;;16.18;100.00
73085;BME280;62974;49.460;10.892;2022-10-16T10:18:21;98052.25;;;16.04;100.00
73085;BME280;62974;49.460;10.892;2022-10-16T10:20:58;98050.06;;;15.94;100.00
73085;BME280;62974;49.460;10.892;2022-10-16T10:23:26;98045.91;;;16.10;100.00
73085;BME280;62974;49.460;10.892;2022-10-16T10:25:56;98037.41;;;16.06;100.00
73085;BME280;62974;49.460;10.892;2022-10-16T10:28:30;98038.03;;;16.08;100.00
73085;BME280;62974;49.460;10.892;2022-10-16T10:31:03;98043.47;;;16.20;100.00
73085;BME280;62974;49.460;10.892;2022-10-16T10:33:37;98041.00;;;16.18;100.00
73085;BME280;62974;49.460;10.892;2022-10-16T10:36:12;98051.72;;;16.25;100.00
73085;BME280;62974;49.460;10.892;2022-10-16T10:38:44;98051.56;;;16.50;100.00
73085;BME280;62974;49.460;10.892;2022-10-16T10:41:20;98046.94;;;16.38;100.00
73085;BME280;62974;49.460;10.892;2022-10-16T10:44:00;98045.47;;;16.24;100.00
73085;BME280;62974;49.460;10.892;2022-10-16T10:46:32;98047.41;;;16.35;100.00
73085;BME280;62974;49.460;10.892;2022-10-16T10:49:14;98041.56;;;16.50;100.00
73085;BME280;62974;49.460;10.892;2022-10-16T10:51:46;98039.75;;;16.74;100.00
73085;BME280;62974;49.460;10.892;2022-10-16T10:54:19;98041.56;;;16.92;98.39
73085;BME280;62974;49.460;10.892;2022-10-16T10:56:50;98052.16;;;16.93;100.00
73085;BME280;62974;49.460;10.892;2022-10-16T11:02:07;98058.41;;;17.05;100.00
73085;BME280;62974;49.460;10.892;2022-10-16T11:07:20;98055.13;;;16.92;100.00
73085;BME280;62974;49.460;10.892;2022-10-16T11:09:49;98058.88;;;17.02;100.00
73085;BME280;62974;49.460;10.892;2022-10-16T11:12:21;98055.69;;;17.05;100.00
73085;BME280;62974;49.460;10.892;2022-10-16T11:14:50;98057.59;;;17.16;100.00
73085;BME280;62974;49.460;10.892;2022-10-16T11:17:25;98059.94;;;17.24;100.00
73085;BME280;62974;49.460;10.892;2022-10-16T11:19:56;98059.50;;;17.27;99.81
73085;BME280;62974;49.460;10.892;2022-10-16T11:22:26;98058.28;;;17.47;99.43
73085;BME280;62974;49.460;10.892;2022-10-16T11:24:59;98063.13;;;17.45;97.01
73085;BME280;62974;49.460;10.892;2022-10-16T11:27:34;98059.84;;;17.31;100.00
73085;BME280;62974;49.460;10.892;2022-10-16T11:30:04;98056.88;;;17.32;98.57
73085;BME280;62974;49.460;10.892;2022-10-16T11:32:34;98063.38;;;17.43;99.29
73085;BME280;62974;49.460;10.892;2022-10-16T11:35:05;98062.91;;;17.58;97.19
73085;BME280;62974;49.460;10.892;2022-10-16T11:37:38;98058.63;;;17.50;97.71
73085;BME280;62974;49.460;10.892;2022-10-16T11:40:14;98061.47;;;17.78;97.22
73085;BME280;62974;49.460;10.892;2022-10-16T11:42:46;98055.88;;;17.85;93.33
73085;BME280;62974;49.460;10.892;2022-10-16T11:45:21;98060.66;;;17.66;95.03
73085;BME280;62974;49.460;10.892;2022-10-16T11:47:52;98064.09;;;17.62;97.40
73085;BME280;62974;49.460;10.892;2022-10-16T11:50:26;98062.41;;;17.61;96.84
73085;BME280;62974;49.460;10.892;2022-10-16T11:52:57;98076.47;;;17.69;97.80
73085;BME280;62974;49.460;10.892;2022-10-16T11:55:29;98070.44;;;17.79;95.38
73085;BME280;62974;49.460;10.892;2022-10-16T11:58:01;98067.97;;;17.66;99.22
73085;BME280;62974;49.460;10.892;2022-10-16T12:00:31;98073.22;;;17.84;96.90
73085;BME280;62974;49.460;10.892;2022-10-16T12:03:03;98067.56;;;17.86;97.46
73085;BME280;62974;49.460;10.892;2022-10-16T12:05:41;98072.25;;;18.02;95.36
73085;BME280;62974;49.460;10.892;2022-10-16T12:08:17;98069.69;;;18.23;93.40
73085;BME280;62974;49.460;10.892;2022-10-16T12:10:45;98060.47;;;18.24;89.42
73085;BME280;62974;49.460;10.892;2022-10-16T12:13:29;98072.41;;;18.23;91.34
73085;BME280;62974;49.460;10.892;2022-10-16T12:16:04;98065.44;;;17.88;91.88
73085;BME280;62974;49.460;10.892;2022-10-16T12:18:37;98058.59;;;17.85;92.01
73085;BME280;62974;49.460;10.892;2022-10-16T12:21:05;98054.44;;;17.94;90.34
73085;BME280;62974;49.460;10.892;2022-10-16T12:23:36;98049.91;;;17.60;92.23
73085;BME280;62974;49.460;10.892;2022-10-16T12:26:04;98058.63;;;17.50;92.94
73085;BME280;62974;49.460;10.892;2022-10-16T12:28:33;98059.56;;;17.44;93.51
73085;BME280;62974;49.460;10.892;2022-10-16T12:31:03;98061.84;;;17.35;94.31
73085;BME280;62974;49.460;10.892;2022-10-16T12:33:32;98061.94;;;17.75;90.56
73085;BME280;62974;49.460;10.892;2022-10-16T12:36:00;98069.69;;;17.95;89.42
73085;BME280;62974;49.460;10.892;2022-10-16T12:38:29;98061.56;;;18.12;87.20
73085;BME280;62974;49.460;10.892;2022-10-16T12:41:00;98063.34;;;18.18;88.63
73085;BME280;62974;49.460;10.892;2022-10-16T12:43:36;98068.50;;;18.31;87.16
73085;BME280;62974;49.460;10.892;2022-10-16T12:46:06;98061.53;;;18.52;83.90
73085;BME280;62974;49.460;10.892;2022-10-16T12:48:47;98055.13;;;18.29;85.69
73085;BME280;62974;49.460;10.892;2022-10-16T12:51:33;98059.88;;;18.22;87.62
73085;BME280;62974;49.460;10.892;2022-10-16T12:54:02;98068.66;;;18.13;91.65
73085;BME280;62974;49.460;10.892;2022-10-16T12:56:34;98057.75;;;18.53;87.18
73085;BME280;62974;49.460;10.892;2022-10-16T12:59:10;98065.41;;;18.27;89.05